createdAt,value
2023-05-22T00:00:07.610Z,99192.78
2023-05-22T00:02:44.248Z,99196.72
2023-05-22T00:05:18.439Z,99199.03
2023-05-22T00:07:50.307Z,99197.00
2023-05-22T00:10:24.693Z,99191.72
2023-05-22T00:12:56.273Z,99192.59
2023-05-22T00:15:27.815Z,99195.47
2023-05-22T00:17:59.481Z,99194.88
2023-05-22T00:20:31.111Z,99190.34
2023-05-22T00:23:03.209Z,99195.94
2023-05-22T00:25:34.849Z,99191.84
2023-05-22T00:28:06.554Z,99198.22
2023-05-22T00:30:38.591Z,99194.94
2023-05-22T00:33:11.458Z,99192.50
2023-05-22T00:35:43.089Z,99194.75
2023-05-22T00:38:28.557Z,99194.38
2023-05-22T00:41:00.524Z,99206.53
2023-05-22T00:43:32.556Z,99200.38
2023-05-22T00:46:04.399Z,99204.28
2023-05-22T00:48:36.039Z,99200.19
2023-05-22T00:51:08.476Z,99197.75
2023-05-22T00:53:40.619Z,99204.09
2023-05-22T00:56:13.140Z,99199.22
2023-05-22T00:58:44.843Z,99198.81
2023-05-22T01:01:17.904Z,99191.47
2023-05-22T01:03:50.859Z,99188.63
2023-05-22T01:06:22.775Z,99189.03
2023-05-22T01:08:54.347Z,99188.44
2023-05-22T01:11:28.616Z,99195.22
2023-05-22T01:14:05.364Z,99192.19
2023-05-22T01:16:46.825Z,99197.53
2023-05-22T01:19:31.737Z,99202.03
2023-05-22T01:22:09.699Z,99193.66
2023-05-22T01:24:53.059Z,99195.72
2023-05-22T01:27:55.643Z,99203.09
2023-05-22T01:30:39.674Z,99197.41
2023-05-22T01:33:14.724Z,99194.31
2023-05-22T01:35:48.084Z,99196.97
2023-05-22T01:38:20.147Z,99209.94
2023-05-22T01:40:52.189Z,99206.66
2023-05-22T01:43:25.002Z,99204.22
2023-05-22T01:45:56.662Z,99205.66
2023-05-22T01:48:28.400Z,99206.94
2023-05-22T01:51:03.763Z,99209.41
2023-05-22T01:53:51.006Z,99208.19
2023-05-22T01:56:34.768Z,99209.66
2023-05-22T01:59:14.805Z,99205.78
2023-05-22T02:01:51.361Z,99203.53
2023-05-22T02:04:23.517Z,99205.81
2023-05-22T02:06:55.795Z,99205.38
2023-05-22T02:09:31.271Z,99204.81
2023-05-22T02:12:03.726Z,99202.31
2023-05-22T02:14:36.898Z,99201.69
2023-05-22T02:17:08.894Z,99196.78
2023-05-22T02:19:40.525Z,99199.84
2023-05-22T02:22:15.144Z,99195.78
2023-05-22T02:24:47.922Z,99190.03
2023-05-22T02:27:20.904Z,99183.50
2023-05-22T02:29:52.765Z,99182.09
2023-05-22T02:32:24.554Z,99182.50
2023-05-22T02:34:56.765Z,99179.44
2023-05-22T02:37:29.582Z,99179.63
2023-05-22T02:40:01.416Z,99177.16
2023-05-22T02:42:35.043Z,99185.38
2023-05-22T02:45:07.391Z,99180.28
2023-05-22T02:47:39.025Z,99178.63
2023-05-22T02:50:11.057Z,99177.41
2023-05-22T02:52:42.864Z,99186.63
2023-05-22T02:55:15.059Z,99181.31
2023-05-22T02:57:49.810Z,99180.69
2023-05-22T03:00:22.484Z,99184.81
2023-05-22T03:02:54.329Z,99189.75
2023-05-22T03:05:25.947Z,99180.94
2023-05-22T03:07:58.140Z,99182.16
2023-05-22T03:10:29.956Z,99185.84
2023-05-22T03:13:01.547Z,99181.56
2023-05-22T03:15:37.054Z,99182.56
2023-05-22T03:18:16.385Z,99186.47
2023-05-22T03:20:48.587Z,99189.56
2023-05-22T03:23:25.227Z,99177.66
2023-05-22T03:25:57.277Z,99176.00
2023-05-22T03:28:32.692Z,99178.69
2023-05-22T03:31:04.321Z,99184.22
2023-05-22T03:33:43.882Z,99179.94
2023-05-22T03:36:16.525Z,99186.28
2023-05-22T03:38:48.277Z,99180.75
2023-05-22T03:41:20.068Z,99181.97
2023-05-22T03:43:51.802Z,99185.25
2023-05-22T03:46:24.091Z,99181.97
2023-05-22T03:48:56.351Z,99183.16
2023-05-22T03:51:29.886Z,99179.28
2023-05-22T03:54:01.690Z,99180.69
2023-05-22T03:56:33.352Z,99176.81
2023-05-22T03:59:05.046Z,99179.88
2023-05-22T04:01:39.483Z,99174.53
2023-05-22T04:04:12.256Z,99169.81
2023-05-22T04:06:44.104Z,99168.81
2023-05-22T04:09:17.765Z,99172.09
2023-05-22T04:11:49.650Z,99171.25
2023-05-22T04:14:21.344Z,99166.94
2023-05-22T04:16:53.217Z,99166.88
2023-05-22T04:19:24.978Z,99164.22
2023-05-22T04:21:58.190Z,99165.44
2023-05-22T04:24:29.993Z,99155.81
2023-05-22T04:27:04.424Z,99159.69
2023-05-22T04:29:41.554Z,99160.75
2023-05-22T04:32:18.076Z,99161.97
2023-05-22T04:34:51.588Z,99162.78
2023-05-22T04:37:24.900Z,99159.88
2023-05-22T04:39:58.230Z,99164.78
2023-05-22T04:42:30.958Z,99162.72
2023-05-22T04:45:02.622Z,99164.50
2023-05-22T04:47:34.354Z,99163.63
2023-05-22T04:50:10.802Z,99160.72
2023-05-22T04:52:42.865Z,99156.91
2023-05-22T04:55:15.041Z,99162.34
2023-05-22T04:57:47.511Z,99161.22
2023-05-22T05:00:19.879Z,99161.59
2023-05-22T05:02:51.903Z,99163.63
2023-05-22T05:05:23.646Z,99167.50
2023-05-22T05:07:56.541Z,99160.84
2023-05-22T05:10:28.492Z,99154.75
2023-05-22T05:13:00.242Z,99152.25
2023-05-22T05:15:32.713Z,99156.72
2023-05-22T05:18:07.350Z,99160.66
2023-05-22T05:20:39.257Z,99153.44
2023-05-22T05:23:11.368Z,99151.50
2023-05-22T05:25:43.019Z,99147.19
2023-05-22T05:28:14.768Z,99144.50
2023-05-22T05:30:47.891Z,99145.88
2023-05-22T05:33:36.735Z,99145.31
2023-05-22T05:36:18.461Z,99146.63
2023-05-22T05:38:53.534Z,99139.19
2023-05-22T05:41:26.715Z,99146.31
2023-05-22T05:44:05.756Z,99147.47
2023-05-22T05:46:38.103Z,99143.59
2023-05-22T05:49:10.116Z,99144.19
2023-05-22T05:51:43.199Z,99147.63
2023-05-22T05:54:16.255Z,99137.28
2023-05-22T05:56:49.181Z,99135.94
2023-05-22T05:59:22.030Z,99132.56
2023-05-22T06:02:22.647Z,99134.50
2023-05-22T06:04:59.186Z,99132.03
2023-05-22T06:07:32.306Z,99135.94
2023-05-22T06:10:05.715Z,99128.22
2023-05-22T06:13:00.946Z,99129.47
2023-05-22T06:15:36.678Z,99125.00
2023-05-22T06:18:08.601Z,99127.69
2023-05-22T06:20:42.055Z,99125.13
2023-05-22T06:23:14.436Z,99120.50
2023-05-22T06:25:48.689Z,99122.47
2023-05-22T06:28:21.717Z,99121.19
2023-05-22T06:30:53.827Z,99114.09
2023-05-22T06:33:27.948Z,99119.44
2023-05-22T06:35:59.786Z,99119.59
2023-05-22T06:38:32.493Z,99119.16
2023-05-22T06:41:05.271Z,99118.72
2023-05-22T06:43:36.975Z,99119.88
2023-05-22T06:46:16.605Z,99115.38
2023-05-22T06:48:56.070Z,99120.69
2023-05-22T06:51:29.803Z,99123.59
2023-05-22T06:54:09.567Z,99116.94
2023-05-22T06:56:42.385Z,99111.50
2023-05-22T06:59:26.274Z,99118.09
2023-05-22T07:02:09.997Z,99114.13
2023-05-22T07:05:02.723Z,99108.19
2023-05-22T07:07:39.540Z,99112.53
2023-05-22T07:10:11.644Z,99110.88
2023-05-22T07:12:44.418Z,99114.41
2023-05-22T07:15:16.154Z,99116.84
2023-05-22T07:17:54.124Z,99108.19
2023-05-22T07:20:26.377Z,99110.63
2023-05-22T07:23:09.516Z,99109.75
2023-05-22T07:25:43.052Z,99106.00
2023-05-22T07:28:16.737Z,99098.91
2023-05-22T07:30:57.361Z,99092.59
2023-05-22T07:33:29.139Z,99096.59
2023-05-22T07:36:02.470Z,99094.97
2023-05-22T07:38:34.581Z,99099.25
2023-05-22T07:41:08.661Z,99091.19
2023-05-22T07:43:40.410Z,99090.38
2023-05-22T07:46:14.595Z,99097.03
2023-05-22T07:48:59.430Z,99083.16
2023-05-22T07:51:31.405Z,99091.00
2023-05-22T07:54:03.076Z,99092.03
2023-05-22T07:56:37.829Z,99088.22
2023-05-22T07:59:12.937Z,99090.84
2023-05-22T08:01:44.521Z,99086.81
2023-05-22T08:04:16.506Z,99077.91
2023-05-22T08:06:48.489Z,99080.38
2023-05-22T08:09:21.634Z,99085.22
2023-05-22T08:11:53.380Z,99086.41
2023-05-22T08:14:25.210Z,99079.00
2023-05-22T08:16:59.079Z,99077.59
2023-05-22T08:19:30.884Z,99066.53
2023-05-22T08:22:02.611Z,99075.75
2023-05-22T08:24:34.192Z,99084.97
2023-05-22T08:27:05.952Z,99072.00
2023-05-22T08:29:37.697Z,99075.84
2023-05-22T08:32:09.409Z,99070.34
2023-05-22T08:34:42.184Z,99073.88
2023-05-22T08:37:15.123Z,99068.13
2023-05-22T08:39:49.783Z,99071.69
2023-05-22T08:42:21.698Z,99071.31
2023-05-22T08:44:55.696Z,99065.47
2023-05-22T08:47:28.499Z,99070.19
2023-05-22T08:50:00.270Z,99060.06
2023-05-22T08:52:37.310Z,99060.81
2023-05-22T08:55:09.232Z,99061.88
2023-05-22T08:57:42.270Z,99055.75
2023-05-22T09:00:14.324Z,99059.16
2023-05-22T09:02:46.656Z,99062.75
2023-05-22T09:05:18.473Z,99052.16
2023-05-22T09:07:50.108Z,99063.66
2023-05-22T09:10:21.759Z,99050.88
2023-05-22T09:13:04.324Z,99050.41
2023-05-22T09:15:36.645Z,99052.38
2023-05-22T09:18:08.453Z,99044.47
2023-05-22T09:20:40.334Z,99041.06
2023-05-22T09:23:14.430Z,99040.69
2023-05-22T09:25:46.504Z,99046.56
2023-05-22T09:28:18.222Z,99045.56
2023-05-22T09:30:53.523Z,99039.09
2023-05-22T09:33:25.177Z,99047.25
2023-05-22T09:35:58.016Z,99045.50
2023-05-22T09:38:30.268Z,99039.00
2023-05-22T09:41:01.912Z,99046.63
2023-05-22T09:43:33.629Z,99048.63
2023-05-22T09:46:05.346Z,99048.69
2023-05-22T09:48:37.372Z,99037.84
2023-05-22T09:51:10.540Z,99037.38
2023-05-22T09:53:43.354Z,99036.00
2023-05-22T09:56:19.131Z,99032.56
2023-05-22T09:58:53.093Z,99032.72
2023-05-22T10:01:25.473Z,99041.28
2023-05-22T10:03:57.328Z,99033.06
2023-05-22T10:06:31.488Z,99034.25
2023-05-22T10:09:05.206Z,99030.00
2023-05-22T10:11:37.361Z,99021.06
2023-05-22T10:14:09.199Z,99021.94
2023-05-22T10:16:41.515Z,99022.28
2023-05-22T10:19:13.628Z,99014.81
2023-05-22T10:21:45.467Z,99011.84
2023-05-22T10:24:27.324Z,99008.78
2023-05-22T10:26:59.326Z,99020.66
2023-05-22T10:29:38.457Z,99001.63
2023-05-22T10:32:15.212Z,98995.91
2023-05-22T10:35:14.908Z,98994.34
2023-05-22T10:38:02.358Z,98990.91
2023-05-22T10:40:36.249Z,98984.84
2023-05-22T10:43:08.053Z,98989.72
2023-05-22T10:45:43.088Z,98980.94
2023-05-22T10:48:21.660Z,98988.41
2023-05-22T10:50:53.481Z,98975.47
2023-05-22T10:53:25.948Z,98968.81
2023-05-22T10:55:58.488Z,98970.28
2023-05-22T10:58:31.084Z,98974.84
2023-05-22T11:01:09.903Z,98963.84
2023-05-22T11:04:00.656Z,98952.03
2023-05-22T11:06:45.614Z,98956.88
2023-05-22T11:09:20.679Z,98956.31
2023-05-22T11:12:11.089Z,98947.63
2023-05-22T11:14:53.457Z,98948.31
2023-05-22T11:17:29.726Z,98951.25
2023-05-22T11:20:05.906Z,98947.91
2023-05-22T11:22:40.726Z,98946.38
2023-05-22T11:25:19.188Z,98944.88
2023-05-22T11:27:53.518Z,98941.19
2023-05-22T11:30:26.825Z,98940.00
2023-05-22T11:33:01.879Z,98942.31
2023-05-22T11:35:34.158Z,98942.19
2023-05-22T11:38:07.231Z,98940.19
2023-05-22T11:40:39.295Z,98932.47
2023-05-22T11:43:11.254Z,98934.78
2023-05-22T11:45:42.916Z,98933.47
2023-05-22T11:48:15.718Z,98935.03
2023-05-22T11:50:47.734Z,98935.03
2023-05-22T11:53:19.626Z,98938.16
2023-05-22T11:55:51.316Z,98927.19
2023-05-22T11:58:27.474Z,98945.09
2023-05-22T12:01:02.554Z,98933.94
2023-05-22T12:03:34.355Z,98934.56
2023-05-22T12:06:06.802Z,98936.38
2023-05-22T12:08:38.480Z,98934.41
2023-05-22T12:11:11.701Z,98932.84
2023-05-22T12:13:43.284Z,98934.41
2023-05-22T12:16:18.721Z,98931.03
2023-05-22T12:18:54.385Z,98940.13
2023-05-22T12:21:26.849Z,98930.59
2023-05-22T12:23:58.557Z,98931.22
2023-05-22T12:26:30.574Z,98918.25
2023-05-22T12:29:05.029Z,98925.50
2023-05-22T12:31:39.681Z,98913.06
2023-05-22T12:34:11.298Z,98914.44
2023-05-22T12:36:43.891Z,98906.50
2023-05-22T12:39:18.766Z,98913.78
2023-05-22T12:41:50.457Z,98909.75
2023-05-22T12:44:22.121Z,98903.25
2023-05-22T12:46:53.807Z,98896.28
2023-05-22T12:49:25.471Z,98900.25
2023-05-22T12:51:57.120Z,98911.47
2023-05-22T12:54:28.779Z,98897.56
2023-05-22T12:57:00.665Z,98900.22
2023-05-22T12:59:33.603Z,98892.78
2023-05-22T13:02:05.782Z,98887.59
2023-05-22T13:04:37.513Z,98894.41
2023-05-22T13:07:09.183Z,98898.22
2023-05-22T13:09:40.926Z,98896.91
2023-05-22T13:12:12.788Z,98897.63
2023-05-22T13:14:44.575Z,98886.34
2023-05-22T13:17:16.230Z,98877.44
2023-05-22T13:19:47.925Z,98879.22
2023-05-22T13:22:19.478Z,98879.28
2023-05-22T13:24:51.209Z,98878.94
2023-05-22T13:27:22.982Z,98869.28
2023-05-22T13:29:54.977Z,98863.56
2023-05-22T13:32:26.734Z,98873.91
2023-05-22T13:34:58.428Z,98869.72
2023-05-22T13:37:30.047Z,98872.00
2023-05-22T13:40:01.814Z,98868.88
2023-05-22T13:42:33.586Z,98862.91
2023-05-22T13:45:05.666Z,98869.88
2023-05-22T13:47:37.364Z,98870.50
2023-05-22T13:50:09.855Z,98871.97
2023-05-22T13:52:41.484Z,98869.06
2023-05-22T13:55:13.103Z,98863.03
2023-05-22T13:57:45.022Z,98868.66
2023-05-22T14:00:17.448Z,98858.88
2023-05-22T14:02:49.232Z,98863.75
2023-05-22T14:05:21.100Z,98861.81
2023-05-22T14:07:53.050Z,98848.91
2023-05-22T14:10:24.710Z,98847.81
2023-05-22T14:12:56.419Z,98845.81
2023-05-22T14:15:28.322Z,98849.44
2023-05-22T14:18:00.160Z,98839.03
2023-05-22T14:20:31.807Z,98846.38
2023-05-22T14:23:03.418Z,98858.94
2023-05-22T14:25:35.071Z,98841.50
2023-05-22T14:28:06.750Z,98845.94
2023-05-22T14:30:39.031Z,98845.72
2023-05-22T14:33:13.400Z,98839.41
2023-05-22T14:35:46.576Z,98843.91
2023-05-22T14:38:18.287Z,98847.66
2023-05-22T14:40:50.126Z,98844.06
2023-05-22T14:43:21.774Z,98844.88
2023-05-22T14:45:58.080Z,98840.25
2023-05-22T14:48:33.002Z,98841.84
2023-05-22T14:51:04.626Z,98844.31
2023-05-22T14:53:36.283Z,98836.19
2023-05-22T14:56:08.039Z,98834.09
2023-05-22T14:58:39.714Z,98835.13
2023-05-22T15:01:12.249Z,98836.72
2023-05-22T15:03:43.927Z,98835.59
2023-05-22T15:06:17.793Z,98834.59
2023-05-22T15:08:49.608Z,98823.28
2023-05-22T15:11:22.046Z,98827.41
2023-05-22T15:13:56.598Z,98827.13
2023-05-22T15:16:28.297Z,98821.16
2023-05-22T15:19:00.096Z,98819.75
2023-05-22T15:21:31.925Z,98829.84
2023-05-22T15:24:04.046Z,98838.72
2023-05-22T15:26:35.627Z,98820.00
2023-05-22T15:29:07.392Z,98818.22
2023-05-22T15:31:39.069Z,98812.78
2023-05-22T15:34:10.895Z,98810.81
2023-05-22T15:36:42.604Z,98813.06
2023-05-22T15:39:14.223Z,98805.81
2023-05-22T15:41:54.595Z,98814.22
2023-05-22T15:44:34.329Z,98812.88
2023-05-22T15:47:06.094Z,98817.63
2023-05-22T15:49:37.818Z,98799.25
2023-05-22T15:52:09.667Z,98801.97
2023-05-22T15:54:41.281Z,98806.84
2023-05-22T15:57:12.968Z,98796.00
2023-05-22T15:59:47.232Z,98794.66
2023-05-22T16:02:19.138Z,98792.72
2023-05-22T16:04:50.902Z,98791.38
2023-05-22T16:07:22.533Z,98791.94
2023-05-22T16:09:54.326Z,98790.03
2023-05-22T16:12:25.969Z,98787.69
2023-05-22T16:15:00.236Z,98783.63
2023-05-22T16:17:32.394Z,98772.09
2023-05-22T16:20:05.226Z,98772.97
2023-05-22T16:22:48.200Z,98769.78
2023-05-22T16:25:20.729Z,98779.16
2023-05-22T16:27:52.370Z,98776.78
2023-05-22T16:30:24.071Z,98770.81
2023-05-22T16:32:55.750Z,98776.84
2023-05-22T16:35:27.420Z,98771.22
2023-05-22T16:37:59.057Z,98775.59
2023-05-22T16:40:30.735Z,98782.16
2023-05-22T16:43:02.339Z,98771.66
2023-05-22T16:45:33.990Z,98770.09
2023-05-22T16:48:05.761Z,98772.81
2023-05-22T16:50:37.445Z,98778.50
2023-05-22T16:53:09.310Z,98778.28
2023-05-22T16:55:43.370Z,98784.00
2023-05-22T16:58:15.110Z,98782.94
2023-05-22T17:00:46.909Z,98784.56
2023-05-22T17:03:18.918Z,98787.03
2023-05-22T17:05:51.416Z,98779.47
2023-05-22T17:08:22.996Z,98777.31
2023-05-22T17:10:56.169Z,98773.25
2023-05-22T17:13:27.781Z,98780.91
2023-05-22T17:15:59.459Z,98781.44
2023-05-22T17:18:31.690Z,98777.44
2023-05-22T17:21:04.550Z,98772.59
2023-05-22T17:23:37.307Z,98773.97
2023-05-22T17:26:09.093Z,98770.19
2023-05-22T17:28:40.803Z,98783.78
2023-05-22T17:31:12.613Z,98777.88
2023-05-22T17:33:44.264Z,98774.34
2023-05-22T17:36:15.876Z,98773.81
2023-05-22T17:38:47.508Z,98772.78
2023-05-22T17:41:19.117Z,98771.72
2023-05-22T17:43:51.306Z,98783.09
2023-05-22T17:46:23.290Z,98777.19
2023-05-22T17:48:55.449Z,98779.91
2023-05-22T17:51:27.119Z,98790.19
2023-05-22T17:53:59.143Z,98788.03
2023-05-22T17:56:30.854Z,98792.16
2023-05-22T17:59:02.480Z,98801.38
2023-05-22T18:01:34.513Z,98799.50
2023-05-22T18:04:06.887Z,98796.28
2023-05-22T18:06:38.529Z,98798.44
2023-05-22T18:09:10.188Z,98802.25
2023-05-22T18:11:41.986Z,98798.50
2023-05-22T18:14:16.385Z,98786.34
2023-05-22T18:16:48.001Z,98792.59
2023-05-22T18:19:19.833Z,98786.91
2023-05-22T18:21:54.022Z,98790.97
2023-05-22T18:24:27.699Z,98789.88
2023-05-22T18:26:59.408Z,98785.81
2023-05-22T18:29:31.137Z,98790.41
2023-05-22T18:32:03.087Z,98782.31
2023-05-22T18:34:37.087Z,98782.59
2023-05-22T18:37:08.984Z,98789.59
2023-05-22T18:39:40.822Z,98802.03
2023-05-22T18:42:12.982Z,98799.28
2023-05-22T18:44:46.303Z,98790.13
2023-05-22T18:47:19.893Z,98803.84
2023-05-22T18:49:51.524Z,98803.59
2023-05-22T18:52:23.209Z,98806.22
2023-05-22T18:54:54.879Z,98813.75
2023-05-22T18:57:26.728Z,98806.72
2023-05-22T18:59:58.902Z,98805.84
2023-05-22T19:02:30.799Z,98807.19
2023-05-22T19:05:03.603Z,98808.50
2023-05-22T19:07:35.457Z,98824.91
2023-05-22T19:10:08.370Z,98818.66
2023-05-22T19:12:40.153Z,98821.31
2023-05-22T19:15:11.845Z,98824.25
2023-05-22T19:17:43.534Z,98830.09
2023-05-22T19:20:15.319Z,98833.78
2023-05-22T19:22:47.152Z,98838.84
2023-05-22T19:25:19.010Z,98840.72
2023-05-22T19:27:50.830Z,98846.09
2023-05-22T19:30:22.481Z,98842.81
2023-05-22T19:32:55.958Z,98847.94
2023-05-22T19:35:27.791Z,98850.06
2023-05-22T19:37:59.949Z,98842.44
2023-05-22T19:40:31.656Z,98851.31
2023-05-22T19:43:03.475Z,98844.25
2023-05-22T19:45:35.177Z,98842.28
2023-05-22T19:48:06.866Z,98836.06
2023-05-22T19:50:39.396Z,98831.72
2023-05-22T19:53:11.230Z,98841.09
2023-05-22T19:55:43.092Z,98835.38
2023-05-22T19:58:14.784Z,98833.69
2023-05-22T20:00:48.608Z,98833.88
2023-05-22T20:03:21.102Z,98835.72
2023-05-22T20:05:55.972Z,98829.22
2023-05-22T20:08:28.494Z,98831.56
2023-05-22T20:11:00.139Z,98827.75
2023-05-22T20:13:31.837Z,98822.63
2023-05-22T20:16:03.645Z,98829.06
2023-05-22T20:18:35.324Z,98830.94
2023-05-22T20:21:07.080Z,98830.88
2023-05-22T20:23:39.905Z,98828.72
2023-05-22T20:26:14.374Z,98834.28
2023-05-22T20:28:46.138Z,98832.59
2023-05-22T20:31:18.095Z,98832.53
2023-05-22T20:33:49.777Z,98831.97
2023-05-22T20:36:22.302Z,98829.75
2023-05-22T20:38:54.682Z,98835.41
2023-05-22T20:41:26.332Z,98832.38
2023-05-22T20:43:58.758Z,98824.56
2023-05-22T20:46:30.801Z,98823.41
2023-05-22T20:49:04.829Z,98828.50
2023-05-22T20:51:36.961Z,98819.03
2023-05-22T20:54:08.613Z,98826.47
2023-05-22T20:56:40.240Z,98826.91
2023-05-22T20:59:12.163Z,98826.50
2023-05-22T21:01:43.864Z,98823.00
2023-05-22T21:04:15.737Z,98820.84
2023-05-22T21:06:47.443Z,98826.97
2023-05-22T21:09:19.168Z,98821.53
2023-05-22T21:11:50.752Z,98825.19
2023-05-22T21:14:22.478Z,98830.72
2023-05-22T21:16:54.093Z,98836.34
2023-05-22T21:19:25.803Z,98838.78
2023-05-22T21:21:57.515Z,98829.25
2023-05-22T21:24:32.574Z,98842.44
2023-05-22T21:27:04.292Z,98836.56
2023-05-22T21:29:35.940Z,98848.13
2023-05-22T21:32:07.976Z,98848.13
2023-05-22T21:34:39.614Z,98849.69
2023-05-22T21:37:13.343Z,98840.22
2023-05-22T21:39:45.065Z,98838.22
2023-05-22T21:42:16.685Z,98838.34
2023-05-22T21:44:48.332Z,98835.00
2023-05-22T21:47:20.013Z,98844.59
2023-05-22T21:49:51.652Z,98847.53
2023-05-22T21:52:25.146Z,98840.94
2023-05-22T21:54:56.875Z,98840.28
2023-05-22T21:57:28.683Z,98843.09
2023-05-22T22:00:00.453Z,98841.38
2023-05-22T22:02:32.046Z,98833.03
2023-05-22T22:05:03.774Z,98836.19
2023-05-22T22:07:35.505Z,98840.94
2023-05-22T22:10:07.673Z,98829.44
2023-05-22T22:12:39.288Z,98829.44
2023-05-22T22:15:12.248Z,98827.47
2023-05-22T22:17:43.969Z,98822.09
2023-05-22T22:20:16.002Z,98827.00
2023-05-22T22:22:47.608Z,98823.50
2023-05-22T22:25:19.262Z,98815.59
2023-05-22T22:27:51.207Z,98817.38
2023-05-22T22:30:22.852Z,98817.28
2023-05-22T22:32:54.467Z,98811.75
2023-05-22T22:35:26.433Z,98815.00
2023-05-22T22:37:58.092Z,98811.41
2023-05-22T22:40:29.738Z,98815.63
2023-05-22T22:43:01.333Z,98812.84
2023-05-22T22:45:32.910Z,98816.00
2023-05-22T22:48:05.825Z,98815.09
2023-05-22T22:50:37.554Z,98809.63
2023-05-22T22:53:09.269Z,98805.09
2023-05-22T22:55:41.315Z,98803.78
2023-05-22T22:58:13.259Z,98808.00
2023-05-22T23:00:44.973Z,98804.41
2023-05-22T23:03:16.664Z,98810.78
2023-05-22T23:05:48.567Z,98807.06
2023-05-22T23:08:20.309Z,98799.41
2023-05-22T23:10:51.955Z,98804.28
2023-05-22T23:13:23.603Z,98797.78
2023-05-22T23:15:55.368Z,98794.84
2023-05-22T23:18:27.072Z,98795.91
2023-05-22T23:20:58.639Z,98796.13
2023-05-22T23:23:30.348Z,98802.53
2023-05-22T23:26:01.909Z,98790.19
2023-05-22T23:28:33.475Z,98781.59
2023-05-22T23:31:05.121Z,98772.19
2023-05-22T23:33:36.724Z,98773.34
2023-05-22T23:36:08.323Z,98783.50
2023-05-22T23:38:39.943Z,98779.19
2023-05-22T23:41:12.063Z,98778.50
2023-05-22T23:43:43.972Z,98779.22
2023-05-22T23:46:15.608Z,98773.28
2023-05-22T23:48:47.229Z,98777.81
2023-05-22T23:51:18.839Z,98786.06
2023-05-22T23:53:50.473Z,98782.34
2023-05-22T23:56:22.204Z,98782.72
2023-05-22T23:58:54.067Z,98779.00
